Data for 01/09/2018

Time Sea-Level Adjusted Pressure Absolute Pressure Temperature Relative Humidity Dew Point   
(mb) (inHg) (mb) (inHg) (C) (F) (%) (C) (F)
00:05 1011 29.85 840 24.81 1.9 35.3 54 -6.5 20.2
00:10 1010 29.83 840 24.81 2 35.7 52 -6.7 19.9
00:15 1011 29.85 840 24.81 2.5 36.5 51 -6.6 20.1
00:20 1011 29.85 840 24.81 2.5 36.6 52 -6.2 20.8
00:25 1011 29.85 840 24.81 1.8 35.2 55 -6.4 20.5
00:30 1011 29.85 840 24.81 1 33.8 59 -6.2 20.8
00:35 1011 29.85 840 24.81 0.2 32.4 61 -6.4 20.5
00:40 1011 29.85 840 24.81 -0.3 31.5 63 -6.5 20.4
00:45 1010 29.83 840 24.81 -0.5 31.1 65 -6.4 20.5
00:50 1010 29.83 840 24.81 -0.7 30.7 65 -6.4 20.4
00:55 1010 29.83 840 24.81 -0.9 30.4 67 -6.4 20.5
01:00 1010 29.83 840 24.81 -1.1 30 68 -6.4 20.6
01:05 1010 29.83 840 24.81 -1 30.2 67 -6.3 20.7
01:10 1010 29.83 840 24.81 -0.7 30.7 66 -6.3 20.7
01:15 1010 29.83 840 24.81 -0.6 30.9 66 -6.1 21
01:20 1010 29.83 840 24.81 -0.5 31.1 66 -6.1 20.9
01:25 1010 29.83 840 24.81 -0.4 31.3 66 -6 21.2
01:30 1010 29.83 840 24.81 -0.6 30.9 66 -6.1 21
01:35 1010 29.83 840 24.81 -0.7 30.7 66 -6.3 20.6
01:40 1010 29.83 839 24.78 -0.5 31.2 64 -6.4 20.5
01:45 1010 29.83 840 24.81 -0.4 31.4 66 -5.9 21.3
01:50 1010 29.83 840 24.81 -0.8 30.6 67 -6.2 20.9
01:55 1010 29.83 839 24.78 -0.8 30.6 66 -6.4 20.5
02:00 1010 29.83 840 24.81 -0.9 30.4 68 -6.1 21.1
02:05 1010 29.83 840 24.81 -0.9 30.3 67 -6.3 20.7
02:10 1010 29.83 840 24.81 -0.5 31.1 65 -6.4 20.5
02:15 1010 29.83 840 24.81 0.3 32.5 61 -6.5 20.4
02:20 1010 29.83 839 24.78 0.3 32.5 63 -6 21.2
02:25 1010 29.83 839 24.78 0 32 62 -6.3 20.6
02:30 1010 29.83 839 24.78 0.1 32.2 63 -6.2 20.8
02:35 1010 29.83 839 24.78 -0.1 31.8 64 -6 21.2
02:40 1010 29.83 839 24.78 -0.2 31.7 65 -6 21.1
02:45 1010 29.83 839 24.78 -0.1 31.9 64 -6 21.1
02:50 1010 29.83 839 24.78 -0 31.9 64 -6 21.2
02:55 1010 29.83 839 24.78 -0.1 31.9 65 -5.9 21.3
03:00 1010 29.83 839 24.78 0.3 32.6 62 -6.2 20.9
03:05 1010 29.83 839 24.78 0.5 32.9 62 -6 21.2
03:10 1010 29.83 839 24.78 0.9 33.6 59 -6.2 20.8
03:15 1010 29.83 839 24.78 2 35.6 57 -5.7 21.8
03:20 1010 29.83 839 24.78 1.9 35.4 57 -5.7 21.7
03:25 1009 29.8 839 24.78 2.1 35.8 55 -6 21.1
03:30 1009 29.8 838 24.75 2.2 36 56 -5.8 21.6
03:35 1009 29.8 838 24.75 2.5 36.4 56 -5.4 22.2
03:40 1009 29.8 838 24.75 2.5 36.4 57 -5.2 22.6
03:45 1009 29.8 838 24.75 2.2 36 57 -5.4 22.3
03:50 1009 29.8 838 24.75 2.6 36.7 55 -5.5 22.2
03:55 1009 29.8 838 24.75 3.2 37.7 54 -5.2 22.7
04:00 1009 29.8 838 24.75 3.1 37.6 55 -5.1 22.9
04:05 1009 29.8 838 24.75 3.1 37.6 56 -4.8 23.4
04:10 1009 29.8 838 24.75 2.5 36.6 57 -5 23
04:15 1009 29.8 838 24.75 2.8 37.1 56 -5.1 22.8
04:20 1009 29.8 838 24.75 3.9 39.1 51 -5.2 22.6
04:25 1008 29.77 838 24.75 4.9 40.8 50 -4.8 23.4
04:30 1008 29.77 838 24.75 4.5 40 52 -4.4 24
04:35 1008 29.77 838 24.75 4 39.2 55 -4.3 24.3
04:40 1008 29.77 838 24.75 2.9 37.2 55 -5.2 22.7
04:45 1008 29.77 838 24.75 3.6 38.5 52 -5.2 22.6
04:50 1008 29.77 838 24.75 4.4 39.9 52 -4.6 23.7
04:55 1009 29.8 838 24.75 3.2 37.7 57 -4.4 24
05:00 1009 29.8 838 24.75 2.9 37.1 56 -5 23
05:05 1008 29.77 838 24.75 3 37.4 56 -5 23
05:10 1008 29.77 838 24.75 3.2 37.8 55 -4.9 23.2
05:15 1008 29.77 838 24.75 3.2 37.8 56 -4.6 23.7
05:20 1008 29.77 837 24.72 2.6 36.7 58 -4.7 23.5
05:25 1008 29.77 837 24.72 2.9 37.3 57 -4.7 23.6
05:30 1008 29.77 837 24.72 2.4 36.2 62 -4.2 24.5
05:35 1008 29.77 837 24.72 2.2 36 64 -4 24.9
05:40 1008 29.77 837 24.72 1.4 34.5 66 -4.3 24.3
05:45 1008 29.77 838 24.75 1.4 34.5 64 -4.6 23.7
05:50 1008 29.77 837 24.72 1.7 35 62 -4.8 23.3
05:55 1008 29.77 837 24.72 2.3 36.2 61 -4.5 23.9
06:00 1008 29.77 837 24.72 2.8 37.1 59 -4.4 24.1
06:05 1008 29.77 837 24.72 2.8 37.1 60 -4.1 24.6
06:10 1008 29.77 837 24.72 2.1 35.7 62 -4.4 24.1
06:15 1008 29.77 837 24.72 1.8 35.3 61 -4.8 23.4
06:20 1008 29.77 837 24.72 2.2 35.9 58 -5.3 22.4
06:25 1008 29.77 837 24.72 2.5 36.4 61 -4.4 24.2
06:30 1008 29.77 837 24.72 2.2 35.9 62 -4.4 24.1
06:35 1008 29.77 837 24.72 2 35.5 63 -4.3 24.2
06:40 1008 29.77 837 24.72 1.7 35.1 65 -4.2 24.4
06:45 1008 29.77 837 24.72 1.8 35.3 62 -4.7 23.5
06:50 1008 29.77 837 24.72 2.3 36.1 61 -4.4 24.1
06:55 1008 29.77 837 24.72 2.4 36.2 63 -4.1 24.7
07:00 1008 29.77 837 24.72 2.4 36.3 60 -4.6 23.8
07:05 1008 29.77 837 24.72 3 37.4 60 -4.1 24.6
07:10 1008 29.77 837 24.72 3.1 37.6 58 -4.3 24.2
07:15 1008 29.77 837 24.72 3.1 37.5 60 -4 24.8
07:20 1008 29.77 837 24.72 3.4 38.1 58 -4.2 24.5
07:25 1008 29.77 837 24.72 3.5 38.3 58 -4 24.8
07:30 1008 29.77 837 24.72 3.1 37.5 60 -4 24.8
07:35 1008 29.77 837 24.72 3.4 38.1 59 -3.9 25
07:40 1008 29.77 837 24.72 3.3 38 59 -3.9 25
07:45 1008 29.77 837 24.72 3.7 38.6 57 -4 24.8
07:50 1007 29.74 837 24.72 3.9 39.1 57 -3.8 25.2
07:55 1007 29.74 837 24.72 3.6 38.4 59 -3.8 25.1
08:00 1007 29.74 836 24.69 3.4 38.2 59 -3.8 25.2
08:05 1007 29.74 836 24.69 3.4 38.1 60 -3.6 25.5
08:10 1007 29.74 836 24.69 3.4 38.1 60 -3.6 25.6
08:15 1007 29.74 836 24.69 3.4 38.1 60 -3.6 25.5
08:20 1007 29.74 836 24.69 3.5 38.3 59 -3.7 25.4
08:25 1007 29.74 836 24.69 4 39.1 58 -3.5 25.6
08:30 1007 29.74 836 24.69 4.2 39.5 57 -3.5 25.7
08:35 1007 29.74 836 24.69 4.3 39.7 57 -3.5 25.7
08:40 1007 29.74 836 24.69 4.3 39.8 58 -3.3 26
08:45 1007 29.74 836 24.69 4.5 40.1 57 -3.3 26
08:50 1007 29.74 836 24.69 4.5 40 58 -3.2 26.3
08:55 1007 29.74 836 24.69 4.4 39.9 58 -3.1 26.4
09:00 1007 29.74 836 24.69 4.3 39.7 58 -3.2 26.2
09:05 1007 29.74 836 24.69 4.4 39.9 58 -3.2 26.3
09:10 1007 29.74 836 24.69 4.7 40.4 57 -3.1 26.4
09:15 1007 29.74 836 24.69 5 41 56 -3.1 26.4
09:20 1007 29.74 836 24.69 5.1 41.1 56 -3 26.6
09:25 1007 29.74 836 24.69 4.8 40.6 58 -2.9 26.8
09:30 1007 29.74 836 24.69 4.6 40.3 58 -3 26.6
09:35 1007 29.74 836 24.69 4.8 40.7 57 -3.1 26.5
09:40 1007 29.74 836 24.69 5.3 41.6 54 -3.3 26.1
09:45 1007 29.74 836 24.69 5.8 42.4 54 -2.9 26.7
09:50 1007 29.74 836 24.69 5.9 42.6 53 -3 26.5
09:55 1007 29.74 836 24.69 6 42.8 55 -2.4 27.6
10:00 1007 29.74 836 24.69 5.5 41.9 55 -2.7 27.1
10:05 1006 29.71 836 24.69 5.6 42 54 -3 26.6
10:10 1006 29.71 836 24.69 6 42.8 53 -2.8 26.9
10:15 1006 29.71 835 24.66 6.1 42.9 54 -2.6 27.3
10:20 1006 29.71 835 24.66 6.1 43 54 -2.6 27.4
10:25 1006 29.71 835 24.66 6 42.9 54 -2.5 27.5
10:30 1006 29.71 835 24.66 6.2 43.1 54 -2.5 27.6
10:35 1006 29.71 835 24.66 6 42.8 55 -2.4 27.7
10:40 1006 29.71 835 24.66 5.6 42.1 56 -2.6 27.4
10:45 1006 29.71 835 24.66 5.8 42.4 55 -2.7 27.2
10:50 1006 29.71 835 24.66 6.1 43 54 -2.6 27.3
10:55 1006 29.71 835 24.66 6.4 43.5 53 -2.5 27.6
11:00 1006 29.71 835 24.66 6.5 43.7 53 -2.4 27.6
11:05 1006 29.71 835 24.66 6.2 43.2 55 -2.2 28.1
11:10 1006 29.71 835 24.66 6.1 42.9 55 -2.2 28
11:15 1006 29.71 835 24.66 6.1 43 54 -2.5 27.5
11:20 1005 29.68 835 24.66 6.2 43.2 53 -2.5 27.4
11:25 1005 29.68 834 24.63 6.3 43.3 53 -2.6 27.3
11:30 1005 29.68 834 24.63 6.2 43.2 55 -2.3 27.9
11:35 1005 29.68 834 24.63 6 42.8 55 -2.4 27.6
11:40 1005 29.68 834 24.63 6.1 43 54 -2.4 27.7
11:45 1005 29.68 834 24.63 6.1 43 55 -2.3 27.9
11:50 1005 29.68 834 24.63 6.1 42.9 55 -2.4 27.7
11:55 1005 29.68 834 24.63 6.2 43.2 54 -2.3 27.8
12:00 1005 29.68 834 24.63 6 42.8 56 -2.1 28.3
12:05 1005 29.68 834 24.63 5.9 42.6 56 -2.3 27.8
12:10 1005 29.68 834 24.63 6.3 43.3 54 -2.3 27.8
12:15 1005 29.68 834 24.63 6.5 43.7 54 -2.2 28
12:20 1005 29.68 834 24.63 6.8 44.2 52 -2.3 27.9
12:25 1004 29.65 834 24.63 6.9 44.5 52 -2.2 28
12:30 1004 29.65 834 24.63 7.2 44.9 51 -2.2 28
12:35 1004 29.65 834 24.63 7.3 45.1 51 -2.2 28.1
12:40 1004 29.65 833 24.6 7.2 45 51 -2.2 28.1
12:45 1004 29.65 833 24.6 7.5 45.4 50 -2.2 28.1
12:50 1004 29.65 833 24.6 7.6 45.7 51 -1.9 28.5
12:55 1004 29.65 833 24.6 7.7 45.9 50 -2 28.5
13:00 1004 29.65 833 24.6 7.9 46.2 50 -1.9 28.5
13:05 1004 29.65 833 24.6 8 46.5 50 -1.8 28.8
13:10 1004 29.65 833 24.6 7.6 45.7 51 -1.8 28.7
13:15 1004 29.65 833 24.6 7.4 45.3 52 -1.8 28.8
13:20 1004 29.65 833 24.6 7.1 44.7 54 -1.7 28.9
13:25 1004 29.65 833 24.6 6.9 44.4 53 -2 28.3
13:30 1004 29.65 833 24.6 6.9 44.4 54 -1.9 28.7
13:35 1004 29.65 833 24.6 7 44.6 53 -1.9 28.6
13:40 1004 29.65 833 24.6 7.1 44.8 53 -1.8 28.8
13:45 1004 29.65 833 24.6 7.2 45 54 -1.6 29.1
13:50 1004 29.65 833 24.6 7.1 44.7 55 -1.2 29.8
13:55 1004 29.65 833 24.6 6.7 44.1 56 -1.4 29.6
14:00 1004 29.65 833 24.6 6.5 43.7 58 -1.2 29.9
14:05 1004 29.65 833 24.6 6.4 43.5 59 -1 30.1
14:10 1004 29.65 833 24.6 6.1 43 60 -1.1 30.1
14:15 1004 29.65 833 24.6 5.9 42.6 61 -1 30.2
14:20 1004 29.65 833 24.6 5.7 42.3 61 -1.2 29.9
14:25 1004 29.65 833 24.6 5.8 42.4 60 -1.3 29.7
14:30 1004 29.65 833 24.6 6 42.8 57 -1.8 28.8
14:35 1004 29.65 833 24.6 6.5 43.7 57 -1.4 29.5
14:40 1004 29.65 833 24.6 6.6 43.9 55 -1.8 28.8
14:45 1004 29.65 833 24.6 6.7 44.1 56 -1.3 29.6
14:50 1004 29.65 833 24.6 6.6 43.9 57 -1.2 29.9
14:55 1004 29.65 833 24.6 6.3 43.4 59 -1 30.1
15:00 1004 29.65 833 24.6 6 42.7 59 -1.3 29.6
15:05 1004 29.65 833 24.6 5.8 42.4 60 -1.4 29.6
15:10 1004 29.65 833 24.6 5.7 42.2 60 -1.4 29.5
15:15 1004 29.65 833 24.6 5.6 42.2 60 -1.4 29.5
15:20 1004 29.65 833 24.6 5.7 42.3 60 -1.5 29.4
15:25 1004 29.65 833 24.6 5.8 42.5 60 -1.4 29.5
15:30 1004 29.65 833 24.6 5.9 42.7 61 -0.9 30.3
15:35 1004 29.65 833 24.6 5.8 42.4 61 -1.3 29.7
15:40 1004 29.65 833 24.6 5.8 42.5 62 -1 30.2
15:45 1004 29.65 833 24.6 5.7 42.3 63 -0.9 30.4
15:50 1004 29.65 833 24.6 5.6 42.1 63 -0.8 30.6
15:55 1004 29.65 833 24.6 5.6 42 64 -0.7 30.8
16:00 1004 29.65 833 24.6 5.3 41.5 65 -0.8 30.6
16:05 1004 29.65 833 24.6 5 41.1 66 -0.8 30.6
16:10 1003 29.62 833 24.6 4.8 40.7 66 -1 30.2
16:15 1003 29.62 833 24.6 5.1 41.2 65 -0.9 30.5
16:20 1003 29.62 833 24.6 5 40.9 67 -0.7 30.7
16:25 1003 29.62 833 24.6 4.8 40.6 67 -0.9 30.4
16:30 1003 29.62 833 24.6 5 41.1 65 -1 30.1
16:35 1003 29.62 833 24.6 5.2 41.4 65 -0.9 30.4
16:40 1003 29.62 833 24.6 5.2 41.4 64 -0.9 30.3
16:45 1003 29.62 833 24.6 5.7 42.2 62 -1 30.2
16:50 1003 29.62 833 24.6 6 42.8 63 -0.5 31
16:55 1003 29.62 833 24.6 5.7 42.3 65 -0.2 31.6
17:00 1003 29.62 833 24.6 5.2 41.4 67 -0.3 31.5
17:05 1003 29.62 833 24.6 5 41.1 67 -0.5 31.1
17:10 1003 29.62 833 24.6 5.1 41.3 68 -0.2 31.6
17:15 1003 29.62 833 24.6 4.9 40.8 67 -0.6 30.9
17:20 1003 29.62 833 24.6 5.3 41.6 66 -0.5 31.2
17:25 1003 29.62 832 24.57 5.3 41.6 67 -0.3 31.5
17:30 1003 29.62 832 24.57 5.2 41.3 67 -0.3 31.4
17:35 1003 29.62 832 24.57 5.2 41.3 68 -0.3 31.4
17:40 1003 29.62 832 24.57 5.1 41.2 68 -0.3 31.5
17:45 1003 29.62 832 24.57 5 41.1 68 -0.3 31.5
17:50 1003 29.62 832 24.57 5 40.9 69 -0.2 31.7
17:55 1003 29.62 832 24.57 5.1 41.2 69 -0.2 31.6
18:00 1003 29.62 832 24.57 5.1 41.1 69 -0.1 31.9
18:05 1003 29.62 832 24.57 5.1 41.1 69 -0.2 31.6
18:10 1003 29.62 832 24.57 5.1 41.2 69 -0.1 31.8
18:15 1003 29.62 832 24.57 5.2 41.3 68 -0.2 31.7
18:20 1003 29.62 832 24.57 5.1 41.1 69 -0.1 31.7
18:25 1003 29.62 832 24.57 5.2 41.3 68 -0.3 31.5
18:30 1003 29.62 832 24.57 5.5 41.9 67 -0.2 31.7
18:35 1003 29.62 832 24.57 5.5 42 67 -0.1 31.8
18:40 1003 29.62 832 24.57 5.5 41.9 67 -0.2 31.7
18:45 1003 29.62 832 24.57 5.5 41.9 66 -0.3 31.4
18:50 1003 29.62 832 24.57 5.6 42.2 65 -0.4 31.3
18:55 1003 29.62 832 24.57 5.7 42.2 66 -0.2 31.6
19:00 1003 29.62 832 24.57 5.1 41.2 69 -0 32
19:05 1003 29.62 832 24.57 4.9 40.7 69 -0.4 31.3
19:10 1003 29.62 833 24.6 5.2 41.4 66 -0.5 31
19:15 1003 29.62 833 24.6 5.2 41.4 69 -0 32
19:20 1003 29.62 833 24.6 4.7 40.5 70 -0.3 31.4
19:25 1003 29.62 833 24.6 4.7 40.5 69 -0.4 31.2
19:30 1003 29.62 832 24.57 5.1 41.2 67 -0.4 31.2
19:35 1003 29.62 833 24.6 5.2 41.4 68 -0.2 31.7
19:40 1003 29.62 832 24.57 5 41.1 69 -0.2 31.7
19:45 1003 29.62 832 24.57 5 41 70 -0 32
19:50 1003 29.62 832 24.57 4.7 40.5 71 -0.1 31.8
19:55 1003 29.62 832 24.57 4.3 39.8 74 0.1 32.1
20:00 1003 29.62 832 24.57 4.4 40 73 -0 31.9
20:05 1003 29.62 832 24.57 4.4 39.9 74 0.1 32.2
20:10 1003 29.62 832 24.57 4 39.2 76 0.1 32.3
20:15 1003 29.62 832 24.57 3.7 38.6 78 0.1 32.2
20:20 1003 29.62 832 24.57 3.4 38.1 80 0.2 32.4
20:25 1003 29.62 832 24.57 3.2 37.8 81 0.3 32.5
20:30 1003 29.62 832 24.57 3.4 38.1 81 0.3 32.6
20:35 1003 29.62 832 24.57 3.6 38.4 80 0.4 32.7
20:40 1003 29.62 832 24.57 3.6 38.5 79 0.3 32.6
20:45 1003 29.62 832 24.57 3.4 38.1 81 0.3 32.6
20:50 1003 29.62 832 24.57 3.2 37.8 81 0.3 32.5
20:55 1003 29.62 832 24.57 3.4 38.1 80 0.3 32.5
21:00 1003 29.62 832 24.57 3.7 38.6 78 0.2 32.4
21:05 1003 29.62 832 24.57 4.1 39.4 76 0.2 32.4
21:10 1003 29.62 832 24.57 4.2 39.6 76 0.4 32.8
21:15 1003 29.62 832 24.57 4.3 39.7 76 0.5 32.9
21:20 1003 29.62 832 24.57 3.8 38.9 80 0.7 33.3
21:25 1003 29.62 832 24.57 3.3 37.9 82 0.5 32.9
21:30 1003 29.62 832 24.57 2.8 37.1 85 0.6 33
21:35 1003 29.62 832 24.57 2.6 36.7 86 0.6 33
21:40 1003 29.62 832 24.57 3 37.5 84 0.5 33
21:45 1003 29.62 832 24.57 3.2 37.8 83 0.6 33.1
21:50 1003 29.62 832 24.57 3.4 38.2 82 0.6 33
21:55 1003 29.62 832 24.57 3.7 38.7 80 0.6 33.1
22:00 1003 29.62 832 24.57 3.8 38.9 80 0.6 33.2
22:05 1003 29.62 832 24.57 3.9 39 79 0.7 33.2
22:10 1003 29.62 832 24.57 4 39.2 79 0.7 33.3
22:15 1003 29.62 832 24.57 3.9 39 80 0.8 33.4
22:20 1003 29.62 832 24.57 3.7 38.7 81 0.8 33.4
22:25 1003 29.62 832 24.57 3.5 38.3 83 0.9 33.6
22:30 1003 29.62 832 24.57 3.2 37.7 85 0.9 33.6
22:35 1003 29.62 832 24.57 3 37.5 85 0.8 33.4
22:40 1003 29.62 832 24.57 3 37.4 86 0.8 33.5
22:45 1003 29.62 832 24.57 2.9 37.3 85 0.7 33.3
22:50 1003 29.62 832 24.57 3.2 37.8 85 0.9 33.6
22:55 1002 29.59 832 24.57 3.2 37.8 85 0.9 33.7
23:00 1002 29.59 832 24.57 3.2 37.7 85 0.9 33.6
23:05 1002 29.59 832 24.57 3.3 38 84 0.8 33.5
23:10 1002 29.59 832 24.57 3.3 37.9 84 0.9 33.6
23:15 1002 29.59 832 24.57 3.2 37.7 86 1 33.9
23:20 1002 29.59 832 24.57 3.3 37.9 85 1 33.9
23:25 1002 29.59 832 24.57 3.4 38.1 84 1 33.9
23:30 1002 29.59 831 24.54 3.4 38.1 85 1.1 33.9
23:35 1002 29.59 831 24.54 3.4 38 85 1.1 34
23:40 1002 29.59 831 24.54 3.3 37.9 86 1.2 34.2
23:45 1002 29.59 831 24.54 3.2 37.7 87 1.1 34.1
23:50 1002 29.59 831 24.54 3.1 37.6 87 1.2 34.1
23:55 1002 29.59 831 24.54 2.9 37.1 88 1.1 34
24:00 1002 29.59 831 24.54 2.8 37.1 89 1.1 34